createdAt,value
2023-04-22T00:01:21.296Z,60.03
2023-04-22T00:03:50.729Z,63.33
2023-04-22T00:06:19.252Z,65.80
2023-04-22T00:08:47.283Z,64.13
2023-04-22T00:11:15.691Z,67.33
2023-04-22T00:13:44.003Z,67.33
2023-04-22T00:16:12.089Z,61.10
2023-04-22T00:18:40.138Z,64.27
2023-04-22T00:21:09.584Z,67.03
2023-04-22T00:23:37.639Z,58.33
2023-04-22T00:26:05.898Z,65.50
2023-04-22T00:28:34.139Z,62.30
2023-04-22T00:31:03.394Z,65.07
2023-04-22T00:33:31.870Z,61.93
2023-04-22T00:35:59.914Z,65.23
2023-04-22T00:38:29.337Z,64.03
2023-04-22T00:40:57.600Z,59.40
2023-04-22T00:43:54.254Z,65.47
2023-04-22T00:46:22.484Z,63.67
2023-04-22T00:48:50.572Z,64.20
2023-04-22T00:51:18.570Z,68.90
2023-04-22T00:53:47.999Z,70.47
2023-04-22T00:56:16.685Z,68.37
2023-04-22T00:58:44.909Z,61.87
2023-04-22T01:01:13.521Z,58.53
2023-04-22T01:03:41.869Z,62.07
2023-04-22T01:06:10.208Z,61.67
2023-04-22T01:08:38.269Z,60.00
2023-04-22T01:11:07.750Z,59.87
2023-04-22T01:13:38.269Z,65.03
2023-04-22T01:16:08.959Z,65.05
2023-04-22T01:18:37.573Z,55.28
2023-04-22T01:21:07.243Z,64.10
2023-04-22T01:23:36.721Z,64.77
2023-04-22T01:26:04.805Z,60.33
2023-04-22T01:28:32.984Z,62.00
2023-04-22T01:31:01.464Z,73.03
2023-04-22T01:33:31.172Z,67.33
2023-04-22T01:35:59.200Z,69.80
2023-04-22T01:38:27.310Z,75.60
2023-04-22T01:40:56.981Z,72.60
2023-04-22T01:43:25.192Z,72.73
2023-04-22T01:45:53.229Z,68.63
2023-04-22T01:48:21.477Z,74.63
2023-04-22T01:50:49.609Z,84.40
2023-04-22T01:53:17.686Z,68.27
2023-04-22T01:55:46.056Z,65.43
2023-04-22T01:58:16.026Z,67.87
2023-04-22T02:00:44.982Z,68.63
2023-04-22T02:03:13.011Z,75.37
2023-04-22T02:05:41.320Z,87.17
2023-04-22T02:08:09.703Z,75.47
2023-04-22T02:10:37.695Z,77.30
2023-04-22T02:13:05.925Z,73.63
2023-04-22T02:15:35.781Z,78.20
2023-04-22T02:18:03.911Z,71.37
2023-04-22T02:20:32.032Z,74.43
2023-04-22T02:23:00.378Z,70.80
2023-04-22T02:25:29.233Z,68.67
2023-04-22T02:27:57.460Z,70.60
2023-04-22T02:30:25.708Z,72.87
2023-04-22T02:32:56.197Z,78.27
2023-04-22T02:35:24.263Z,74.37
2023-04-22T02:37:52.431Z,72.17
2023-04-22T02:40:23.157Z,67.55
2023-04-22T02:42:52.801Z,69.13
2023-04-22T02:45:22.082Z,64.83
2023-04-22T02:47:50.118Z,66.37
2023-04-22T02:50:19.626Z,68.93
2023-04-22T02:52:47.699Z,75.37
2023-04-22T02:55:15.695Z,83.67
2023-04-22T02:57:43.756Z,80.27
2023-04-22T03:00:12.312Z,70.63
2023-04-22T03:02:41.027Z,70.53
2023-04-22T03:05:14.690Z,71.90
2023-04-22T03:07:44.642Z,74.97
2023-04-22T03:10:12.985Z,72.63
2023-04-22T03:13:58.554Z,79.13
2023-04-22T03:16:28.089Z,76.43
2023-04-22T03:18:58.231Z,81.50
2023-04-22T03:21:26.593Z,73.53
2023-04-22T03:24:21.184Z,79.03
2023-04-22T03:26:52.445Z,75.13
2023-04-22T03:29:20.483Z,68.70
2023-04-22T03:32:15.180Z,76.40
2023-04-22T03:34:43.384Z,67.33
2023-04-22T03:37:11.708Z,70.00
2023-04-22T03:39:41.374Z,73.07
2023-04-22T03:42:11.949Z,72.45
2023-04-22T03:44:43.509Z,67.87
2023-04-22T03:47:11.833Z,68.57
2023-04-22T03:49:46.509Z,75.00
2023-04-22T03:52:14.996Z,76.57
2023-04-22T03:54:50.428Z,76.23
2023-04-22T03:57:18.961Z,78.73
2023-04-22T03:59:47.473Z,74.03
2023-04-22T04:02:15.685Z,68.73
2023-04-22T04:04:44.466Z,64.90
2023-04-22T04:07:12.808Z,74.87
2023-04-22T04:09:41.206Z,72.13
2023-04-22T04:12:11.059Z,76.63
2023-04-22T04:14:44.080Z,71.77
2023-04-22T04:17:15.564Z,80.30
2023-04-22T04:19:43.768Z,72.97
2023-04-22T04:22:11.957Z,80.03
2023-04-22T04:24:49.844Z,76.27
2023-04-22T04:27:24.023Z,80.07
2023-04-22T04:29:56.006Z,79.57
2023-04-22T04:32:39.125Z,83.10
2023-04-22T04:35:12.993Z,74.40
2023-04-22T04:37:44.189Z,70.80
2023-04-22T04:40:37.166Z,81.90
2023-04-22T04:43:14.420Z,78.72
2023-04-22T04:45:50.259Z,72.60
2023-04-22T04:48:27.102Z,72.83
2023-04-22T04:51:01.100Z,77.00
2023-04-22T04:53:32.508Z,78.20
2023-04-22T04:56:00.505Z,85.27
2023-04-22T04:58:31.019Z,81.27
2023-04-22T05:01:16.570Z,75.80
2023-04-22T05:03:46.377Z,77.33
2023-04-22T05:08:49.776Z,74.20
2023-04-22T05:11:17.812Z,83.13
2023-04-22T05:13:50.036Z,92.65
2023-04-22T05:16:24.033Z,85.50
2023-04-22T05:18:52.151Z,96.87
2023-04-22T05:21:20.368Z,86.17
2023-04-22T05:23:48.698Z,78.33
2023-04-22T05:26:16.876Z,81.83
2023-04-22T05:28:47.514Z,81.70
2023-04-22T05:31:18.295Z,85.40
2023-04-22T05:33:46.407Z,81.47
2023-04-22T05:36:14.484Z,84.83
2023-04-22T05:38:43.120Z,87.37
2023-04-22T05:41:11.200Z,88.63
2023-04-22T05:43:39.216Z,91.07
2023-04-22T05:46:12.404Z,84.10
2023-04-22T05:48:43.574Z,84.57
2023-04-22T05:51:25.603Z,72.00
2023-04-22T05:53:53.761Z,93.40
2023-04-22T05:56:22.099Z,81.80
2023-04-22T05:58:50.092Z,83.23
2023-04-22T06:01:22.427Z,80.23
2023-04-22T06:03:58.727Z,87.23
2023-04-22T06:06:27.778Z,81.28
2023-04-22T06:08:55.763Z,83.10
2023-04-22T06:11:23.783Z,77.70
2023-04-22T06:13:51.881Z,88.03
2023-04-22T06:16:20.178Z,78.83
2023-04-22T06:18:48.304Z,81.33
2023-04-22T06:21:18.058Z,84.73
2023-04-22T06:28:37.681Z,84.07
2023-04-22T06:31:11.770Z,76.67
2023-04-22T06:33:40.060Z,77.97
2023-04-22T06:36:09.160Z,82.17
2023-04-22T06:38:39.845Z,82.57
2023-04-22T06:41:41.907Z,80.23
2023-04-22T06:44:24.916Z,74.27
2023-04-22T06:47:28.307Z,84.50
2023-04-22T06:50:11.747Z,76.57
2023-04-22T06:52:47.054Z,80.73
2023-04-22T06:55:16.517Z,80.10
2023-04-22T06:57:44.715Z,76.43
2023-04-22T07:00:13.959Z,79.80
2023-04-22T07:02:42.948Z,80.20
2023-04-22T07:05:10.944Z,85.60
2023-04-22T07:07:39.316Z,82.07
2023-04-22T07:10:08.472Z,83.57
2023-04-22T07:12:45.406Z,81.50
2023-04-22T07:15:13.374Z,92.85
2023-04-22T07:17:41.601Z,80.07
2023-04-22T07:20:10.698Z,78.47
2023-04-22T07:22:38.637Z,83.73
2023-04-22T07:25:07.809Z,84.47
2023-04-22T07:27:37.271Z,79.20
2023-04-22T07:30:08.733Z,88.77
2023-04-22T07:32:36.798Z,84.33
2023-04-22T07:35:05.070Z,91.70
2023-04-22T07:37:33.134Z,84.43
2023-04-22T07:40:01.106Z,87.93
2023-04-22T07:42:29.115Z,87.37
2023-04-22T07:44:57.054Z,98.60
2023-04-22T07:47:26.525Z,94.87
2023-04-22T07:49:54.508Z,97.37
2023-04-22T07:52:22.542Z,94.13
2023-04-22T07:54:51.002Z,93.27
2023-04-22T07:57:21.762Z,93.70
2023-04-22T07:59:49.776Z,96.07
2023-04-22T08:02:17.847Z,91.87
2023-04-22T08:04:47.262Z,88.97
2023-04-22T08:07:31.031Z,85.63
2023-04-22T08:10:01.592Z,84.17
2023-04-22T08:12:30.450Z,85.53
2023-04-22T08:14:58.782Z,80.23
2023-04-22T08:17:26.810Z,90.80
2023-04-22T08:19:56.256Z,71.83
2023-04-22T08:22:25.476Z,80.73
2023-04-22T08:24:53.632Z,85.20
2023-04-22T08:27:22.908Z,80.73
2023-04-22T08:29:51.133Z,67.87
2023-04-22T08:32:20.130Z,68.03
2023-04-22T08:37:19.871Z,72.05
2023-04-22T08:39:47.830Z,58.10
2023-04-22T08:42:18.210Z,58.50
2023-04-22T08:44:46.646Z,58.20
2023-04-22T08:47:15.985Z,62.33
2023-04-22T08:49:45.036Z,53.13
2023-04-22T08:52:15.364Z,43.77
2023-04-22T08:54:44.795Z,42.70
2023-04-22T08:57:13.591Z,36.17
2023-04-22T08:59:42.876Z,43.17
2023-04-22T09:02:17.738Z,37.65
2023-04-22T09:04:48.461Z,45.40
2023-04-22T09:07:42.082Z,40.80
2023-04-22T09:10:12.886Z,35.60
2023-04-22T09:12:42.498Z,38.25
2023-04-22T09:15:12.927Z,29.60
2023-04-22T09:17:43.304Z,31.85
2023-04-22T09:20:12.981Z,30.80
2023-04-22T09:22:43.027Z,30.33
2023-04-22T09:25:18.548Z,29.20
2023-04-22T09:27:50.502Z,28.55
2023-04-22T09:30:20.320Z,29.30
2023-04-22T09:32:56.289Z,32.53
2023-04-22T09:35:27.302Z,29.65
2023-04-22T09:37:55.384Z,34.40
2023-04-22T09:40:25.703Z,30.67
2023-04-22T09:42:55.183Z,29.02
2023-04-22T09:45:28.174Z,31.63
2023-04-22T09:47:58.001Z,30.27
2023-04-22T09:50:27.816Z,26.80
2023-04-22T09:52:57.225Z,31.52
2023-04-22T09:55:29.166Z,32.35
2023-04-22T09:57:58.901Z,31.33
2023-04-22T10:00:30.012Z,29.88
2023-04-22T10:02:58.013Z,31.50
2023-04-22T10:05:27.209Z,31.27
2023-04-22T10:07:55.237Z,39.13
2023-04-22T10:10:23.822Z,33.70
2023-04-22T10:12:54.314Z,36.50
2023-04-22T10:15:23.457Z,30.50
2023-04-22T10:17:55.792Z,35.40
2023-04-22T10:22:54.795Z,32.28
2023-04-22T10:25:24.589Z,30.30
2023-04-22T10:28:03.417Z,32.22
2023-04-22T10:30:32.938Z,30.63
2023-04-22T10:33:35.226Z,25.60
2023-04-22T10:36:12.029Z,25.25
2023-04-22T10:38:42.424Z,23.15
2023-04-22T10:41:15.561Z,22.70
2023-04-22T10:43:46.804Z,20.95
2023-04-22T10:46:57.795Z,24.45
2023-04-22T10:49:27.266Z,28.05
2023-04-22T10:51:58.340Z,26.73
2023-04-22T10:55:01.516Z,25.65
2023-04-22T10:57:40.179Z,24.27
2023-04-22T11:00:52.564Z,25.88
2023-04-22T11:03:28.891Z,26.30
2023-04-22T11:06:17.324Z,25.20
2023-04-22T11:08:46.696Z,23.58
2023-04-22T11:11:14.906Z,22.92
2023-04-22T11:13:44.240Z,21.08
2023-04-22T11:16:13.781Z,20.10
2023-04-22T11:18:41.949Z,21.85
2023-04-22T11:21:10.457Z,26.38
2023-04-22T11:23:38.603Z,23.63
2023-04-22T11:26:07.907Z,25.20
2023-04-22T11:28:36.495Z,25.95
2023-04-22T11:31:10.396Z,24.75
2023-04-22T11:33:39.965Z,23.83
2023-04-22T11:36:11.247Z,20.17
2023-04-22T11:38:39.338Z,24.33
2023-04-22T11:41:07.476Z,19.52
2023-04-22T11:43:35.993Z,20.23
2023-04-22T11:46:05.215Z,19.33
2023-04-22T11:48:33.351Z,19.60
2023-04-22T11:51:13.040Z,19.25
2023-04-22T11:53:50.617Z,19.83
2023-04-22T11:56:18.600Z,15.93
2023-04-22T11:58:48.451Z,17.75
2023-04-22T12:01:16.567Z,13.18
2023-04-22T12:03:44.915Z,14.35
2023-04-22T12:06:14.432Z,12.45
2023-04-22T12:08:44.917Z,13.57
2023-04-22T12:11:13.556Z,11.95
2023-04-22T12:13:43.740Z,12.93
2023-04-22T12:16:13.451Z,13.68
2023-04-22T12:18:43.165Z,16.88
2023-04-22T12:21:12.893Z,17.45
2023-04-22T12:23:46.344Z,16.35
2023-04-22T12:26:15.016Z,12.70
2023-04-22T12:28:44.473Z,10.35
2023-04-22T12:31:13.391Z,14.10
2023-04-22T12:33:42.272Z,11.25
2023-04-22T12:36:11.245Z,14.50
2023-04-22T12:38:40.608Z,11.05
2023-04-22T12:41:10.704Z,16.85
2023-04-22T12:43:39.515Z,18.85
2023-04-22T12:46:08.940Z,22.63
2023-04-22T12:48:38.162Z,14.60
2023-04-22T12:51:06.983Z,15.18
2023-04-22T12:53:35.894Z,12.43
2023-04-22T12:56:04.153Z,14.07
2023-04-22T12:58:33.608Z,18.30
2023-04-22T13:01:01.620Z,15.32
2023-04-22T13:03:29.964Z,15.05
2023-04-22T13:05:58.104Z,14.20
2023-04-22T13:08:26.457Z,15.05
2023-04-22T13:10:54.696Z,20.13
2023-04-22T13:13:22.751Z,16.02
2023-04-22T13:15:54.182Z,14.18
2023-04-22T13:18:23.328Z,12.63
2023-04-22T13:20:51.664Z,12.63
2023-04-22T13:23:21.838Z,13.07
2023-04-22T13:25:50.648Z,11.57
2023-04-22T13:28:18.667Z,13.20
2023-04-22T13:30:46.674Z,12.02
2023-04-22T13:33:16.154Z,10.85
2023-04-22T13:35:44.658Z,12.40
2023-04-22T13:38:12.653Z,12.13
2023-04-22T13:40:41.022Z,13.82
2023-04-22T13:43:09.610Z,12.82
2023-04-22T13:45:37.756Z,11.82
2023-04-22T13:48:06.213Z,14.15
2023-04-22T13:50:35.619Z,14.15
2023-04-22T13:53:04.820Z,13.38
2023-04-22T13:55:33.003Z,10.57
2023-04-22T13:58:01.217Z,12.48
2023-04-22T14:00:29.664Z,12.50
2023-04-22T14:02:58.090Z,11.07
2023-04-22T14:05:26.132Z,15.85
2023-04-22T14:07:55.821Z,15.75
2023-04-22T14:10:25.147Z,15.18
2023-04-22T14:12:54.600Z,11.35
2023-04-22T14:15:22.678Z,13.45
2023-04-22T14:17:51.216Z,10.95
2023-04-22T14:20:19.316Z,13.70
2023-04-22T14:22:47.396Z,12.27
2023-04-22T14:25:16.742Z,12.35
2023-04-22T14:27:44.695Z,11.35
2023-04-22T14:30:14.348Z,12.88
2023-04-22T14:32:42.674Z,13.18
2023-04-22T14:35:11.196Z,11.55
2023-04-22T14:37:41.126Z,12.00
2023-04-22T14:40:12.029Z,17.27
2023-04-22T14:42:41.758Z,11.60
2023-04-22T14:45:10.704Z,12.98
2023-04-22T14:47:38.871Z,13.50
2023-04-22T14:50:07.895Z,14.23
2023-04-22T14:52:35.978Z,13.35
2023-04-22T14:55:15.461Z,14.88
2023-04-22T14:57:53.413Z,13.00
2023-04-22T15:00:21.767Z,11.93
2023-04-22T15:02:50.279Z,12.98
2023-04-22T15:05:19.091Z,13.15
2023-04-22T15:07:47.336Z,16.55
2023-04-22T15:10:16.825Z,19.25
2023-04-22T15:12:45.471Z,14.88
2023-04-22T15:15:16.188Z,10.90
2023-04-22T15:17:45.032Z,10.50
2023-04-22T15:20:14.318Z,11.45
2023-04-22T15:22:42.520Z,31.02
2023-04-22T15:25:11.219Z,11.23
2023-04-22T15:27:39.877Z,12.93
2023-04-22T15:30:09.185Z,11.82
2023-04-22T15:32:39.194Z,12.38
2023-04-22T15:35:09.399Z,9.82
2023-04-22T15:37:37.717Z,10.90
2023-04-22T15:40:07.714Z,8.65
2023-04-22T15:42:36.024Z,9.75
2023-04-22T15:45:04.436Z,9.30
2023-04-22T15:47:33.705Z,7.70
2023-04-22T15:50:06.676Z,7.78
2023-04-22T15:52:35.142Z,8.38
2023-04-22T15:55:03.200Z,8.55
2023-04-22T15:57:34.759Z,8.00
2023-04-22T16:00:11.680Z,9.57
2023-04-22T16:02:45.445Z,9.07
2023-04-22T16:05:15.137Z,7.75
2023-04-22T16:07:43.437Z,9.25
2023-04-22T16:10:12.230Z,8.82
2023-04-22T16:12:40.320Z,7.88
2023-04-22T16:15:10.602Z,11.40
2023-04-22T16:17:39.068Z,9.15
2023-04-22T16:20:08.685Z,9.43
2023-04-22T16:22:38.221Z,7.80
2023-04-22T16:25:07.451Z,10.10
2023-04-22T16:27:35.628Z,8.75
2023-04-22T16:30:03.885Z,9.68
2023-04-22T16:32:32.773Z,8.73
2023-04-22T16:35:00.905Z,8.77
2023-04-22T16:37:29.046Z,8.55
2023-04-22T16:39:58.680Z,11.40
2023-04-22T16:42:26.903Z,9.80
2023-04-22T16:44:54.863Z,8.75
2023-04-22T16:47:23.012Z,10.27
2023-04-22T16:49:51.110Z,9.93
2023-04-22T16:52:19.332Z,10.77
2023-04-22T16:54:47.463Z,7.47
2023-04-22T16:57:16.908Z,7.20
2023-04-22T16:59:44.999Z,7.57
2023-04-22T17:02:13.224Z,8.00
2023-04-22T17:04:41.609Z,7.00
2023-04-22T17:07:09.742Z,6.80
2023-04-22T17:09:37.928Z,8.77
2023-04-22T17:12:06.307Z,6.97
2023-04-22T17:14:35.765Z,8.23
2023-04-22T17:17:03.801Z,8.63
2023-04-22T17:19:31.920Z,8.65
2023-04-22T17:22:01.769Z,10.23
2023-04-22T17:24:30.564Z,6.00
2023-04-22T17:26:58.580Z,5.88
2023-04-22T17:29:26.781Z,7.95
2023-04-22T17:31:56.276Z,7.18
2023-04-22T17:34:24.484Z,6.15
2023-04-22T17:36:52.502Z,6.22
2023-04-22T17:39:20.667Z,9.57
2023-04-22T17:41:48.806Z,9.15
2023-04-22T17:44:17.007Z,6.25
2023-04-22T17:46:45.201Z,6.82
2023-04-22T17:49:14.873Z,6.80
2023-04-22T17:51:43.135Z,5.65
2023-04-22T17:54:11.341Z,7.85
2023-04-22T17:56:39.514Z,11.70
2023-04-22T17:59:07.617Z,9.45
2023-04-22T18:01:35.741Z,8.90
2023-04-22T18:04:03.915Z,7.20
2023-04-22T18:06:33.524Z,7.00
2023-04-22T18:09:01.600Z,6.93
2023-04-22T18:11:29.993Z,8.15
2023-04-22T18:18:03.910Z,7.95
2023-04-22T18:20:32.084Z,7.43
2023-04-22T18:23:01.557Z,7.47
2023-04-22T18:25:29.784Z,7.40
2023-04-22T18:27:58.040Z,7.47
2023-04-22T18:30:26.303Z,6.45
2023-04-22T18:32:54.724Z,9.32
2023-04-22T18:35:23.134Z,7.43
2023-04-22T18:37:51.697Z,9.18
2023-04-22T18:40:21.627Z,7.10
2023-04-22T18:42:49.712Z,8.17
2023-04-22T18:45:17.695Z,7.70
2023-04-22T18:51:53.016Z,8.50
2023-04-22T18:54:21.102Z,8.20
2023-04-22T18:56:51.463Z,9.05
2023-04-22T18:59:19.472Z,8.50
2023-04-22T19:02:12.507Z,8.73
2023-04-22T19:04:40.940Z,7.45
2023-04-22T19:07:09.233Z,7.30
2023-04-22T19:09:37.277Z,10.15
2023-04-22T19:12:13.493Z,7.07
2023-04-22T19:14:42.261Z,6.47
2023-04-22T19:17:11.041Z,6.20
2023-04-22T19:19:39.404Z,8.38
2023-04-22T19:22:08.145Z,6.80
2023-04-22T19:24:36.608Z,8.23
2023-04-22T19:27:12.155Z,7.28
2023-04-22T19:29:41.490Z,7.85
2023-04-22T19:32:10.909Z,6.55
2023-04-22T19:34:39.580Z,7.97
2023-04-22T19:37:08.314Z,9.13
2023-04-22T19:39:36.765Z,8.27
2023-04-22T19:42:06.640Z,10.13
2023-04-22T19:44:34.690Z,12.20
2023-04-22T19:47:02.949Z,7.93
2023-04-22T19:49:32.998Z,10.95
2023-04-22T19:52:03.506Z,9.80
2023-04-22T19:54:33.013Z,11.65
2023-04-22T19:57:02.213Z,11.18
2023-04-22T19:59:31.877Z,15.95
2023-04-22T20:02:02.728Z,10.45
2023-04-22T20:04:32.500Z,14.02
2023-04-22T20:07:03.042Z,18.38
2023-04-22T20:09:33.832Z,11.85
2023-04-22T20:12:02.967Z,14.55
2023-04-22T20:14:33.773Z,11.95
2023-04-22T20:17:02.393Z,13.00
2023-04-22T20:19:30.817Z,14.32
2023-04-22T20:22:01.106Z,16.38
2023-04-22T20:24:32.105Z,13.80
2023-04-22T20:29:30.036Z,15.73
2023-04-22T20:31:59.867Z,14.35
2023-04-22T20:34:28.501Z,17.15
2023-04-22T20:36:56.763Z,16.30
2023-04-22T20:39:25.709Z,15.43
2023-04-22T20:41:56.280Z,16.90
2023-04-22T20:44:24.313Z,23.15
2023-04-22T20:46:52.250Z,16.17
2023-04-22T20:49:22.068Z,16.52
2023-04-22T20:51:51.217Z,16.00
2023-04-22T20:54:28.628Z,18.63
2023-04-22T20:56:57.836Z,17.83
2023-04-22T20:59:25.834Z,17.35
2023-04-22T21:01:54.634Z,17.30
2023-04-22T21:04:24.543Z,15.82
2023-04-22T21:06:53.433Z,17.40
2023-04-22T21:09:22.475Z,17.45
2023-04-22T21:11:51.195Z,19.63
2023-04-22T21:14:21.008Z,17.47
2023-04-22T21:16:57.768Z,19.58
2023-04-22T21:19:31.280Z,21.55
2023-04-22T21:22:01.417Z,17.20
2023-04-22T21:24:31.068Z,18.58
2023-04-22T21:27:00.167Z,18.38
2023-04-22T21:29:28.778Z,21.60
2023-04-22T21:32:07.975Z,23.40
2023-04-22T21:34:38.973Z,19.13
2023-04-22T21:37:08.198Z,25.25
2023-04-22T21:39:36.511Z,24.83
2023-04-22T21:42:08.351Z,23.67
2023-04-22T21:44:38.091Z,23.48
2023-04-22T21:47:06.791Z,24.10
2023-04-22T21:49:34.854Z,22.10
2023-04-22T21:52:04.208Z,26.23
2023-04-22T21:54:32.236Z,23.67
2023-04-22T21:57:01.163Z,24.17
2023-04-22T21:59:29.263Z,25.80
2023-04-22T22:01:57.331Z,30.97
2023-04-22T22:04:25.625Z,29.17
2023-04-22T22:06:53.817Z,26.53
2023-04-22T22:09:23.256Z,31.07
2023-04-22T22:11:51.259Z,28.83
2023-04-22T22:14:19.306Z,30.13
2023-04-22T22:16:47.372Z,28.37
2023-04-22T22:19:15.468Z,27.87
2023-04-22T22:21:43.448Z,25.47
2023-04-22T22:24:11.566Z,23.13
2023-04-22T22:26:42.860Z,22.10
2023-04-22T22:29:15.580Z,23.83
2023-04-22T22:31:44.661Z,25.07
2023-04-22T22:34:12.806Z,26.45
2023-04-22T22:36:41.274Z,23.92
2023-04-22T22:39:12.028Z,23.57
2023-04-22T22:41:43.621Z,23.27
2023-04-22T22:44:12.271Z,22.47
2023-04-22T22:46:41.097Z,21.97
2023-04-22T22:49:09.838Z,22.50
2023-04-22T22:51:38.390Z,20.73
2023-04-22T22:54:06.861Z,18.70
2023-04-22T22:56:34.908Z,19.67
2023-04-22T22:59:04.293Z,19.15
2023-04-22T23:01:32.463Z,19.23
2023-04-22T23:04:01.056Z,17.23
2023-04-22T23:06:29.170Z,17.57
2023-04-22T23:08:57.185Z,15.80
2023-04-22T23:11:26.189Z,13.97
2023-04-22T23:13:54.160Z,11.80
2023-04-22T23:16:23.618Z,12.50
2023-04-22T23:18:53.091Z,7.47
2023-04-22T23:21:24.107Z,8.97
2023-04-22T23:26:20.767Z,7.68
2023-04-22T23:28:49.233Z,7.17
2023-04-22T23:31:19.775Z,7.55
2023-04-22T23:33:51.121Z,7.60
2023-04-22T23:36:19.923Z,7.10
2023-04-22T23:38:47.919Z,6.40
2023-04-22T23:41:15.952Z,6.57
2023-04-22T23:43:43.904Z,7.00
2023-04-22T23:46:13.096Z,7.70
2023-04-22T23:48:41.299Z,6.77
2023-04-22T23:51:10.658Z,5.10
2023-04-22T23:53:38.582Z,7.83
2023-04-22T23:56:07.390Z,7.72
2023-04-22T23:58:35.771Z,6.07
